• Join FlightAware (Why Join?)
  • Login
  • US Flag 
02:35PM EDT


 

Airport Tracker/Info


-or-


 

Live Flight TrackerFlight Track Log ✈ EGF4234 ✈ 18-Apr-2012 ✈ KORD - KMEM

Flight Track Log - Related Links

Times and Time Zones

All times are in EDT time to prevent confusion due to time zone crossing. See the EGF4234 flight status page for this flight to view local times or setup timezone preferences in your user account.

Time Position Orientation Groundspeed Altitude Reporting Facility
EDT Latitude Longitude Course Direction KTS MPH feet Rate Location/Type
08:23AM 41.9573 -87.9031 162° South  Level FlightAware Approximate
08:24AM 41.9500 -87.9000 206° Southwest 219 252 1,400  Level Chicago TRACON
08:25AM 41.9000 -87.9333 194° South 181 208 3,400 2,040 Climbing Chicago TRACON
08:26AM 41.8500 -87.9500 193° South 236 272 5,300 1,860 Climbing Chicago TRACON
08:26AM 41.8083 -87.9625 189° South 253 291 6,600 2,160 Climbing Chicago Center
08:27AM 41.7356 -87.9781 187° South 263 303 9,000 2,280 Climbing Chicago Center
08:28AM 41.6544 -87.9908 187° South 275 316 11,200 2,280 Climbing Chicago Center
08:29AM 41.5733 -88.0039 188° South 294 338 13,600 1,860 Climbing Chicago Center
08:30AM 41.4881 -88.0194 188° South 299 344 15,000 1,320 Climbing Chicago Center
08:31AM 41.3883 -88.0381 195° South 313 360 16,300 1,260 Climbing Chicago Center
08:32AM 41.2969 -88.0703 194° South 356 410 17,600 1,140 Climbing Chicago Center
08:33AM 41.1972 -88.1025 192° South 362 417 18,600 960 Climbing Chicago Center
08:34AM 41.0975 -88.1294 202° Southwest 373 429 19,600 1,200 Climbing Chicago Center
08:35AM 41.0019 -88.1806 204° Southwest 373 429 21,000 1,440 Climbing Chicago Center
08:36AM 40.9067 -88.2372 205° Southwest 378 435 22,500 1,440 Climbing Chicago Center
08:37AM 40.8114 -88.2964 204° Southwest 378 435 23,900 1,380 Climbing Chicago Center
08:38AM 40.7139 -88.3528 205° Southwest 378 435 25,300 1,380 Climbing Chicago Center
08:40AM 40.5511 -88.4506 206° Southwest 377 434 27,800 1,440 Climbing Kansas City Center
08:41AM 40.4603 -88.5075 205° Southwest 372 428 29,300 1,320 Climbing Kansas City Center
08:42AM 40.3694 -88.5642 204° Southwest 372 428 30,500 1,260 Climbing Kansas City Center
08:43AM 40.2742 -88.6186 204° Southwest 377 434 31,900 1,200 Climbing Kansas City Center
08:44AM 40.1789 -88.6753 203° Southwest 377 434 32,900 1,020 Climbing Kansas City Center
08:45AM 40.0817 -88.7294 205° Southwest 377 434 34,000 540 Climbing Kansas City Center
08:46AM 39.9822 -88.7889 204° Southwest 382 440 34,000  Level Kansas City Center
08:47AM 39.8808 -88.8486 205° Southwest 394 453 34,000  Level Kansas City Center
08:48AM 39.7797 -88.9106 205° Southwest 394 453 34,000  Level Kansas City Center
08:49AM 39.6803 -88.9697 204° Southwest 400 460 34,000 300 Level Kansas City Center
08:50AM 39.5786 -89.0286 203° Southwest 400 460 34,600 780 Climbing Kansas City Center
08:51AM 39.4769 -89.0847 204° Southwest 400 460 35,600 660 Climbing Kansas City Center
08:52AM 39.3733 -89.1436 207° Southwest 405 466 36,000 180 Climbing Kansas City Center
08:53AM 39.2719 -89.2103 201° Southwest 405 466 36,000  Level Kansas City Center
08:54AM 39.1761 -89.2575 206° Southwest 397 457 36,000  Level Kansas City Center
08:55AM 39.0686 -89.3239 204° Southwest 391 450 36,000  Level Kansas City Center
08:56AM 38.9647 -89.3822 205° Southwest 391 450 36,000  Level Kansas City Center
08:57AM 38.8669 -89.4397 204° Southwest 391 450 36,000  Level Kansas City Center
08:58AM 38.7653 -89.4972 204° Southwest 391 450 36,000 -180 Level Kansas City Center
08:59AM 38.6656 -89.5547 203° Southwest 391 450 35,700 -540 Descending Kansas City Center
09:00AM 38.5614 -89.6122 204° Southwest 397 457 35,000 -360 Descending Kansas City Center
09:01AM 38.4678 -89.6661 203° Southwest 402 463 35,000 -420 Level Kansas City Center
09:02AM 38.3514 -89.7294 206° Southwest 413 475 34,200 -540 Descending Kansas City Center
09:03AM 38.2619 -89.7853 203° Southwest 413 475 34,000 -120 Descending Kansas City Center
09:04AM 38.1456 -89.8481 204° Southwest 413 475 34,000  Level Kansas City Center
09:05AM 38.0494 -89.9017 204° Southwest 413 475 34,000  Level Kansas City Center
09:06AM 37.9331 -89.9667 204° Southwest 418 481 34,000  Level Kansas City Center
09:07AM 37.8369 -90.0200 205° Southwest 418 481 34,000 -480 Level Kansas City Center
09:09AM 37.6214 -90.1447 203° Southwest 416 479 32,700 -660 Descending Memphis Center
09:10AM 37.5150 -90.2025 203° Southwest 422 486 32,000 -360 Descending Memphis Center
09:11AM 37.4111 -90.2575 204° Southwest 417 480 32,000  Level Memphis Center
09:12AM 37.3028 -90.3178 204° Southwest 422 486 32,000  Level Memphis Center
09:13AM 37.1839 -90.3828 203° Southwest 422 486 32,000  Level Memphis Center
09:14AM 37.0881 -90.4350 204° Southwest 422 486 32,000 -180 Level Memphis Center
09:15AM 36.9819 -90.4944 203° Southwest 422 486 31,700 -660 Descending Memphis Center
09:16AM 36.8733 -90.5514 204° Southwest 422 486 30,700 -900 Descending Memphis Center
09:17AM 36.7650 -90.6108 202° Southwest 422 486 30,000 -360 Descending Memphis Center
09:18AM 36.6586 -90.6647 201° Southwest 422 486 30,000 -60 Level Memphis Center
09:19AM 36.5542 -90.7133 179° South 417 480 29,900 -840 Descending Memphis Center
09:20AM 36.4333 -90.7103 176° South 412 474 28,400 -1,500 Descending Memphis Center
09:21AM 36.3083 -90.6994 177° South 437 503 27,000 -1,500 Descending Memphis Center
09:22AM 36.1833 -90.6914 177° South 445 512 25,500 -1,620 Descending Memphis Center
09:23AM 36.0603 -90.6831 177° South 453 521 23,800 -2,100 Descending Memphis Center
09:24AM 35.9392 -90.6750 178° South 453 521 21,400 -2,460 Descending Memphis Center
09:25AM 35.8206 -90.6694 176° South 440 506 18,900 -2,400 Descending Memphis Center
09:26AM 35.7078 -90.6586 177° South 427 491 16,600 -2,640 Descending Memphis Center
09:27AM 35.5931 -90.6506 179° South 391 450 13,700 -2,340 Descending Memphis Center
09:28AM 35.4889 -90.6478 146° Southeast 386 444 12,000 -960 Descending Memphis Center
09:29AM 35.4036 -90.5761 125° Southeast 360 414 11,800 -540 Descending Memphis Center
09:30AM 35.3494 -90.4819 129° Southeast 360 414 11,000 -900 Descending Memphis Center
09:31AM 35.2828 -90.3825 130° Southeast 373 429 10,000 -600 Descending Memphis Center
09:32AM 35.2158 -90.2833 130° Southeast 379 436 9,900 -120 Descending Memphis Center
09:33AM 35.1575 -90.1969 131° Southeast 361 415 9,800 -900 Descending Memphis Center
09:34AM 35.1031 -90.1211 169° South 314 361 8,200 -1,200 Descending Memphis Center
09:35AM 35.0594 -90.1103 180° South 271 312 8,000 -780 Descending FAA TRACON SMA TRACON (SMA)
09:35AM 35.0114 -90.1106 182° South 250 288 7,300 -1,440 Descending FAA TRACON SMA TRACON (SMA)
09:36AM 34.9697 -90.1119 180° South 244 281 6,100 -1,740 Descending FAA TRACON SMA TRACON (SMA)
09:37AM 34.9233 -90.1122 178° South 241 277 5,000 -1,440 Descending FAA TRACON SMA TRACON (SMA)
09:37AM 34.8775 -90.1106 131° Southeast 239 275 4,200 -660 Descending FAA TRACON SMA TRACON (SMA)
09:38AM 34.8550 -90.0792 80° East 218 251 4,100 -420 Descending FAA TRACON SMA TRACON (SMA)
09:39AM 34.8617 -90.0333 80° East 202 232 3,700 -600 Descending FAA TRACON SMA TRACON (SMA)